Flight Number: AVA1008 Duration: 1:00
Departure: Frankfurt am Main (EDDF) at 12:00 Distance: 163.934 Nm
Arrival: Bruxelles National (EBBR) at 13:00 Equipment: B1900D

Weather Information
Frankfurt / M-Flughafen, Germany (EDDF) 50-03N 008-36E 113M Jul 19, 2024 - 12:50 PM EDT / 2024.07.19 1650 UTC
Wind: from the NE (050 degrees) at 6 MPH (5 KT) (direction variable):0
Visibility: greater than 7 mile(s):0 Temperature: 87 F (31 C) Dew Point: 59 F (15 C) Relative Humidity: 37% Pressure (altimeter): 29.97 in. Hg (1015 hPa)
ob: EDDF 191650Z AUTO 05005KT 360V100 CAVOK 31/15 Q1015 NOSIG cycle: 17
Sunrise: 03:43 Sunset: 19:20 (UTC)

Bruxelles National, Belgium (EBBR) 50-54N 004-32E 58M Jul 19, 2024 - 12:50 PM EDT / 2024.07.19 1650 UTC
Wind: from the ESE (120 degrees) at 3 MPH (3 KT) (direction variable):0
Visibility: greater than 7 mile(s):0 Temperature: 84 F (29 C) Dew Point: 60 F (16 C) Relative Humidity: 45% Pressure (altimeter): 30.00 in. Hg (1016 hPa)
ob: EBBR 191650Z 12003KT 070V150 CAVOK 29/16 Q1016 NOSIG cycle: 17
Sunrise: 03:56 Sunset: 19:40 (UTC)

TAF:2024/07/19 12:33 TAF TAF EBBR 191115Z 1912/2018 15005KT 9999 FEW045 PROB30 TEMPO 2015/2018 19015G25KT 4500 SHRA TSRA BKN030CB

This route has never been flown.

Route map